Time;durP1;ratioP1;P1;durP2;ratioP2;P2;SDS_P1;SDS_P2;PMS_P1;PMS_P2;Temp;Humidity;BMP_temperature;BMP_pressure;BME280_temperature;BME280_humidity;BME280_pressure;Samples;Min_cycle;Max_cycle;Signal;HPM_P1;HPM_P2
2022/05/30 00:01:44;;;;;;;5.70;4.30;;;;;;;;;;5009406;28;20057;-71
2022/05/30 00:04:10;;;;;;;7.30;4.40;;;;;;;;;;5007857;28;20053;-71
2022/05/30 00:06:35;;;;;;;7.37;4.23;;;;;;;;;;5008426;28;20040;-71
2022/05/30 00:09:03;;;;;;;5.90;4.13;;;;;;;;;;5009871;28;20029;-71
2022/05/30 00:11:29;;;;;;;5.07;4.17;;;;;;;;;;5008258;28;20101;-72
2022/05/30 00:13:55;;;;;;;5.17;4.27;;;;;;;;;;5009634;28;20379;-71
2022/05/30 00:16:23;;;;;;;7.50;4.07;;;;;;;;;;5009380;28;20036;-71
2022/05/30 00:18:51;;;;;;;8.87;4.63;;;;;;;;;;5008077;28;20489;-71
2022/05/30 00:21:21;;;;;;;5.97;3.93;;;;;;;;;;5010163;28;20022;-71
2022/05/30 00:23:48;;;;;;;6.77;4.47;;;;;;;;;;5027637;28;20405;-71
2022/05/30 00:26:15;;;;;;;8.73;4.70;;;;;;;;;;5027750;28;20022;-71
2022/05/30 00:28:42;;;;;;;6.30;4.20;;;;;;;;;;5028148;28;20383;-71
2022/05/30 00:31:10;;;;;;;6.17;4.67;;;;;;;;;;5044396;28;20025;-71
2022/05/30 00:33:36;;;;;;;7.50;4.13;;;;;;;;;;5029211;28;20068;-71
2022/05/30 00:36:02;;;;;;;6.50;4.37;;;;;;;;;;5011783;28;20029;-70
2022/05/30 00:38:27;;;;;;;6.87;4.87;;;;;;;;;;5028893;28;20026;-71
2022/05/30 00:40:53;;;;;;;11.43;4.90;;;;;;;;;;5029230;28;20386;-71
2022/05/30 00:43:24;;;;;;;6.30;4.63;;;;;;;;;;5027825;28;20052;-70
2022/05/30 00:45:51;;;;;;;6.73;4.50;;;;;;;;;;5027695;28;20392;-71
2022/05/30 00:48:19;;;;;;;6.90;4.93;;;;;;;;;;5027505;28;20029;-71
2022/05/30 00:50:45;;;;;;;5.93;4.10;;;;;;;;;;5027859;28;20040;-71
2022/05/30 00:53:12;;;;;;;7.97;5.07;;;;;;;;;;5011365;28;20032;-71
2022/05/30 00:55:39;;;;;;;8.13;4.73;;;;;;;;;;5029160;28;20041;-72
2022/05/30 00:58:07;;;;;;;6.30;4.57;;;;;;;;;;5027601;28;20033;-72
2022/05/30 01:00:33;;;;;;;6.53;4.53;;;;;;;;;;5011619;28;20076;-70
2022/05/30 01:08:30;;;;;;;9.10;5.17;;;;;;;;;;5028703;28;20095;-71
2022/05/30 01:10:56;;;;;;;5.83;4.47;;;;;;;;;;5027409;28;20112;-70
2022/05/30 01:13:23;;;;;;;6.40;4.87;;;;;;;;;;5027358;28;20033;-71
2022/05/30 01:15:49;;;;;;;7.30;4.80;;;;;;;;;;5031311;28;20067;-72
2022/05/30 01:18:23;;;;;;;8.23;5.40;;;;;;;;;;5014431;28;20071;-70
2022/05/30 01:20:58;;;;;;;7.70;5.03;;;;;;;;;;5031014;28;20049;-70
2022/05/30 01:23:42;;;;;;;7.60;5.53;;;;;;;;;;5032137;28;20451;-70
2022/05/30 01:26:38;;;;;;;8.00;5.40;;;;;;;;;;5031035;28;20025;-72
2022/05/30 01:29:06;;;;;;;6.97;4.83;;;;;;;;;;5031098;28;20025;-72
2022/05/30 01:31:33;;;;;;;8.57;4.90;;;;;;;;;;5030488;28;20060;-71
2022/05/30 01:33:59;;;;;;;7.20;5.43;;;;;;;;;;5030800;28;20034;-71
2022/05/30 01:36:28;;;;;;;7.93;4.97;;;;;;;;;;5030817;28;20079;-71
2022/05/30 01:38:53;;;;;;;7.90;5.47;;;;;;;;;;5030791;28;20029;-71
2022/05/30 01:41:22;;;;;;;6.83;5.10;;;;;;;;;;5032196;28;20022;-71
2022/05/30 01:43:48;;;;;;;7.83;4.93;;;;;;;;;;5032696;28;20044;-71
2022/05/30 01:46:19;;;;;;;8.40;4.90;;;;;;;;;;5032031;28;20064;-71
2022/05/30 01:48:48;;;;;;;5.23;4.57;;;;;;;;;;5030631;28;20136;-70
2022/05/30 01:51:15;;;;;;;7.27;5.20;;;;;;;;;;5030530;28;20032;-70
2022/05/30 01:53:41;;;;;;;7.87;5.10;;;;;;;;;;5031844;28;20100;-70
2022/05/30 01:56:07;;;;;;;7.50;4.80;;;;;;;;;;5030496;28;20140;-71
2022/05/30 01:58:33;;;;;;;7.37;4.37;;;;;;;;;;5030234;28;20541;-71
2022/05/30 02:01:03;;;;;;;7.70;4.70;;;;;;;;;;5030473;28;20112;-70
2022/05/30 02:03:30;;;;;;;6.60;4.93;;;;;;;;;;5031326;28;20493;-70
2022/05/30 02:05:56;;;;;;;7.53;4.57;;;;;;;;;;5014102;28;20045;-70
2022/05/30 02:08:22;;;;;;;7.87;5.13;;;;;;;;;;5013593;28;20033;-71
2022/05/30 02:10:48;;;;;;;9.17;5.87;;;;;;;;;;5030157;28;20078;-72
2022/05/30 02:13:15;;;;;;;6.33;5.00;;;;;;;;;;5031276;28;20021;-71
2022/05/30 02:18:25;;;;;;;10.27;4.90;;;;;;;;;;5031214;28;20075;-71
2022/05/30 02:20:50;;;;;;;7.73;4.67;;;;;;;;;;5030982;28;20448;-70
2022/05/30 02:23:17;;;;;;;7.77;4.57;;;;;;;;;;5029064;28;20487;-71
2022/05/30 02:25:43;;;;;;;6.77;4.67;;;;;;;;;;5029731;28;20029;-71
2022/05/30 02:28:09;;;;;;;6.20;4.57;;;;;;;;;;5031201;28;20079;-71
2022/05/30 02:30:35;;;;;;;6.27;4.77;;;;;;;;;;5012989;28;20375;-71
2022/05/30 02:38:31;;;;;;;5.47;4.17;;;;;;;;;;5031025;28;20035;-71
2022/05/30 02:40:56;;;;;;;6.83;4.30;;;;;;;;;;5029604;28;20029;-71
2022/05/30 02:43:23;;;;;;;8.93;4.53;;;;;;;;;;5030803;28;20029;-70
2022/05/30 02:45:49;;;;;;;5.77;4.57;;;;;;;;;;5031165;28;20482;-71
2022/05/30 02:48:15;;;;;;;8.57;5.23;;;;;;;;;;5029383;28;20078;-71
2022/05/30 02:50:41;;;;;;;5.13;4.07;;;;;;;;;;5029300;28;20022;-70
2022/05/30 02:53:06;;;;;;;4.83;4.30;;;;;;;;;;5029468;28;20040;-70
2022/05/30 02:55:32;;;;;;;6.83;4.43;;;;;;;;;;5028979;28;20257;-70
2022/05/30 02:57:59;;;;;;;9.13;5.07;;;;;;;;;;5029463;28;20033;-70
2022/05/30 03:00:26;;;;;;;7.20;4.70;;;;;;;;;;5028787;28;20082;-72
2022/05/30 03:02:52;;;;;;;6.97;4.60;;;;;;;;;;5030590;28;20036;-73
2022/05/30 03:05:18;;;;;;;5.57;4.17;;;;;;;;;;5030433;28;20026;-71
2022/05/30 03:07:43;;;;;;;6.13;4.53;;;;;;;;;;5029025;28;20033;-71
2022/05/30 03:10:11;;;;;;;6.97;4.93;;;;;;;;;;5030323;28;20449;-70
2022/05/30 03:12:36;;;;;;;7.47;4.73;;;;;;;;;;5028963;28;20026;-70
2022/05/30 03:15:02;;;;;;;6.07;4.73;;;;;;;;;;5028899;28;20140;-71
2022/05/30 03:17:29;;;;;;;7.93;4.30;;;;;;;;;;5030301;28;20485;-71
2022/05/30 03:19:55;;;;;;;7.93;4.90;;;;;;;;;;5012065;28;20107;-71
2022/05/30 03:22:21;;;;;;;6.70;4.40;;;;;;;;;;5028353;28;20771;-70
2022/05/30 03:24:48;;;;;;;7.23;4.70;;;;;;;;;;5012672;28;20144;-71
2022/05/30 03:27:13;;;;;;;8.10;4.40;;;;;;;;;;5030319;28;20100;-72
2022/05/30 03:29:39;;;;;;;8.40;4.67;;;;;;;;;;5028407;28;20118;-72
2022/05/30 03:32:05;;;;;;;6.13;4.60;;;;;;;;;;5028800;28;20032;-71
2022/05/30 03:34:30;;;;;;;8.30;5.00;;;;;;;;;;5029846;28;20032;-71
2022/05/30 03:36:56;;;;;;;9.30;5.53;;;;;;;;;;5029194;28;20029;-70
2022/05/30 03:39:23;;;;;;;8.87;5.20;;;;;;;;;;5029552;28;20033;-72
2022/05/30 03:41:48;;;;;;;9.93;5.83;;;;;;;;;;5029721;28;20101;-71
2022/05/30 03:44:14;;;;;;;7.73;4.60;;;;;;;;;;5028474;28;20120;-71
2022/05/30 03:46:39;;;;;;;5.27;4.43;;;;;;;;;;5029748;28;20029;-71
2022/05/30 03:49:05;;;;;;;4.90;4.37;;;;;;;;;;5028478;28;20021;-71
2022/05/30 03:51:32;;;;;;;6.63;4.50;;;;;;;;;;5029475;28;20441;-71
2022/05/30 03:53:57;;;;;;;7.37;4.77;;;;;;;;;;5028498;28;20037;-70
2022/05/30 03:56:23;;;;;;;7.17;5.23;;;;;;;;;;5027828;28;20393;-71
2022/05/30 03:58:49;;;;;;;9.60;4.43;;;;;;;;;;5061299;28;20087;-70
2022/05/30 04:01:15;;;;;;;6.43;4.83;;;;;;;;;;5027894;28;20308;-71
2022/05/30 04:03:42;;;;;;;6.50;5.17;;;;;;;;;;5029572;28;20104;-71
2022/05/30 04:06:08;;;;;;;6.43;4.30;;;;;;;;;;5011314;28;20394;-71
2022/05/30 04:08:35;;;;;;;5.77;4.50;;;;;;;;;;5029156;28;20029;-71
2022/05/30 04:11:02;;;;;;;6.60;4.90;;;;;;;;;;5029578;28;20021;-71
2022/05/30 04:13:28;;;;;;;7.50;5.10;;;;;;;;;;5027971;28;20473;-71
2022/05/30 04:15:53;;;;;;;7.37;4.50;;;;;;;;;;5029404;28;20108;-72
2022/05/30 04:18:19;;;;;;;7.40;4.87;;;;;;;;;;5029234;28;20033;-70
2022/05/30 04:20:46;;;;;;;7.87;4.70;;;;;;;;;;5027514;28;20102;-71
2022/05/30 04:23:13;;;;;;;7.90;4.50;;;;;;;;;;5029214;28;20375;-70
2022/05/30 04:25:39;;;;;;;7.57;5.73;;;;;;;;;;5027530;28;20037;-72
2022/05/30 04:28:05;;;;;;;4.97;4.00;;;;;;;;;;5027784;28;20540;-70
2022/05/30 04:30:30;;;;;;;6.90;4.83;;;;;;;;;;5027472;28;20082;-70
2022/05/30 04:32:56;;;;;;;6.03;4.70;;;;;;;;;;5029377;28;20033;-70
2022/05/30 04:35:22;;;;;;;7.17;4.03;;;;;;;;;;5028916;28;20075;-71
2022/05/30 04:37:49;;;;;;;6.83;4.87;;;;;;;;;;5027719;28;20095;-70
2022/05/30 04:40:18;;;;;;;8.60;5.03;;;;;;;;;;5027579;28;20143;-71
2022/05/30 04:42:45;;;;;;;5.90;4.67;;;;;;;;;;5027789;28;20034;-70
2022/05/30 04:45:12;;;;;;;10.43;4.73;;;;;;;;;;5027767;28;20117;-71
2022/05/30 04:47:39;;;;;;;9.70;4.67;;;;;;;;;;5027583;28;20485;-70
2022/05/30 04:50:08;;;;;;;6.17;4.73;;;;;;;;;;5030553;28;20092;-70
2022/05/30 04:52:33;;;;;;;10.20;4.97;;;;;;;;;;5031688;28;20037;-71
2022/05/30 04:54:59;;;;;;;7.30;4.30;;;;;;;;;;5031586;28;20048;-71
2022/05/30 04:57:25;;;;;;;6.07;4.43;;;;;;;;;;5031609;28;20119;-72
2022/05/30 04:59:52;;;;;;;9.17;5.17;;;;;;;;;;5031518;28;20079;-71
2022/05/30 05:02:19;;;;;;;6.53;5.23;;;;;;;;;;5031444;28;20052;-71
2022/05/30 05:04:45;;;;;;;6.17;5.17;;;;;;;;;;5015032;28;20033;-72
2022/05/30 05:07:10;;;;;;;13.50;5.07;;;;;;;;;;5015247;28;20040;-71
2022/05/30 05:09:46;;;;;;;5.80;4.90;;;;;;;;;;5030951;28;20037;-72
2022/05/30 05:12:12;;;;;;;9.70;5.03;;;;;;;;;;5032592;28;20025;-72
2022/05/30 05:14:37;;;;;;;8.90;5.13;;;;;;;;;;5032467;28;20026;-72
2022/05/30 05:17:05;;;;;;;8.63;5.40;;;;;;;;;;5025460;28;20066;-72
2022/05/30 05:19:32;;;;;;;9.37;4.57;;;;;;;;;;5031562;28;20053;-71
2022/05/30 05:21:58;;;;;;;7.80;4.87;;;;;;;;;;5031747;28;20083;-70
2022/05/30 05:24:24;;;;;;;7.27;5.80;;;;;;;;;;5030565;28;20441;-70
2022/05/30 05:26:50;;;;;;;7.57;4.70;;;;;;;;;;5030342;28;20101;-71
2022/05/30 05:29:17;;;;;;;6.30;5.47;;;;;;;;;;5029916;28;20021;-72
2022/05/30 05:31:44;;;;;;;8.33;5.30;;;;;;;;;;5030383;28;20457;-71
2022/05/30 05:34:11;;;;;;;6.03;5.40;;;;;;;;;;5029972;28;20033;-72
2022/05/30 05:36:41;;;;;;;14.20;6.83;;;;;;;;;;5030004;28;20044;-72
2022/05/30 05:39:08;;;;;;;6.23;4.70;;;;;;;;;;5014152;28;20124;-71
2022/05/30 05:41:34;;;;;;;9.20;5.60;;;;;;;;;;5029504;28;20068;-70
2022/05/30 05:44:00;;;;;;;6.37;4.77;;;;;;;;;;5007830;28;20041;-70
2022/05/30 05:46:28;;;;;;;9.33;5.43;;;;;;;;;;5028958;28;20119;-72
2022/05/30 05:48:55;;;;;;;7.07;5.43;;;;;;;;;;5029092;28;20025;-71
2022/05/30 05:51:23;;;;;;;7.87;5.03;;;;;;;;;;5042433;28;20392;-72
2022/05/30 05:53:50;;;;;;;6.23;4.83;;;;;;;;;;5038823;28;20033;-72
2022/05/30 05:56:29;;;;;;;8.57;5.43;;;;;;;;;;5042276;28;20025;-72
2022/05/30 05:58:55;;;;;;;7.37;5.03;;;;;;;;;;5036280;28;20103;-72
2022/05/30 06:01:31;;;;;;;9.07;4.70;;;;;;;;;;5028691;28;20069;-72
2022/05/30 06:03:59;;;;;;;6.33;4.07;;;;;;;;;;5008236;28;20026;-72
2022/05/30 06:06:26;;;;;;;11.00;4.67;;;;;;;;;;5036721;28;20044;-74
2022/05/30 06:08:53;;;;;;;4.47;4.07;;;;;;;;;;5035571;28;20079;-73
2022/05/30 06:11:21;;;;;;;7.07;4.50;;;;;;;;;;5038857;28;20017;-71
2022/05/30 06:13:48;;;;;;;6.32;4.32;;;;;;;;;;5033506;28;20026;-71
2022/05/30 06:16:18;;;;;;;8.82;4.10;;;;;;;;;;5029561;28;20030;-71
2022/05/30 06:18:44;;;;;;;22.17;11.30;;;;;;;;;;5034032;28;20033;-71
2022/05/30 06:21:10;;;;;;;5.13;4.40;;;;;;;;;;5018011;28;20324;-70
2022/05/30 06:23:36;;;;;;;4.57;3.92;;;;;;;;;;5033456;28;20033;-74
2022/05/30 06:26:09;;;;;;;6.32;4.38;;;;;;;;;;5033933;28;20037;-73
2022/05/30 06:28:36;;;;;;;11.50;4.55;;;;;;;;;;5043048;28;20036;-74
2022/05/30 06:31:07;;;;;;;7.57;4.63;;;;;;;;;;5035984;28;20022;-72
2022/05/30 06:33:35;;;;;;;5.63;3.58;;;;;;;;;;5033149;28;20087;-70
2022/05/30 06:36:11;;;;;;;4.05;3.28;;;;;;;;;;5028701;28;20033;-71
2022/05/30 06:38:37;;;;;;;4.63;4.10;;;;;;;;;;5021571;28;20560;-71
2022/05/30 06:41:14;;;;;;;6.75;3.85;;;;;;;;;;5023466;28;20017;-71
2022/05/30 06:43:42;;;;;;;4.65;3.47;;;;;;;;;;5013085;28;20037;-72
2022/05/30 06:46:08;;;;;;;7.88;4.03;;;;;;;;;;5020539;28;20030;-72
2022/05/30 06:48:34;;;;;;;6.28;3.70;;;;;;;;;;5020176;28;20469;-72
2022/05/30 06:51:10;;;;;;;7.63;3.83;;;;;;;;;;5020564;28;20041;-73
2022/05/30 06:53:36;;;;;;;6.80;3.75;;;;;;;;;;5017749;28;20052;-73
2022/05/30 06:56:01;;;;;;;4.50;3.47;;;;;;;;;;5020873;28;20517;-71
2022/05/30 06:58:28;;;;;;;4.68;3.05;;;;;;;;;;5020374;28;20065;-71
2022/05/30 07:01:01;;;;;;;7.95;3.40;;;;;;;;;;5016433;28;20056;-72
2022/05/30 07:03:27;;;;;;;7.20;3.17;;;;;;;;;;5021850;28;21235;-71
2022/05/30 07:05:53;;;;;;;6.63;3.45;;;;;;;;;;5015084;28;20036;-71
2022/05/30 07:08:18;;;;;;;8.27;4.15;;;;;;;;;;5020934;28;20071;-71
2022/05/30 07:10:45;;;;;;;5.82;3.28;;;;;;;;;;4996598;28;20025;-71
2022/05/30 07:13:12;;;;;;;5.20;3.50;;;;;;;;;;5020778;28;20452;-73
2022/05/30 07:15:38;;;;;;;6.85;4.00;;;;;;;;;;5015364;28;20088;-74
2022/05/30 07:18:13;;;;;;;5.63;3.20;;;;;;;;;;5018365;28;20033;-70
2022/05/30 07:20:41;;;;;;;3.50;2.67;;;;;;;;;;5017200;28;20064;-73
2022/05/30 07:23:07;;;;;;;6.15;2.88;;;;;;;;;;5017228;28;20041;-73
2022/05/30 07:25:35;;;;;;;5.72;3.38;;;;;;;;;;5017112;28;20516;-72
2022/05/30 07:28:04;;;;;;;4.40;2.75;;;;;;;;;;5002587;28;20293;-71
2022/05/30 07:30:31;;;;;;;3.92;2.90;;;;;;;;;;5004779;28;20036;-72
2022/05/30 07:32:57;;;;;;;4.32;2.95;;;;;;;;;;5019274;28;20100;-72
2022/05/30 07:35:24;;;;;;;6.20;2.88;;;;;;;;;;5016324;28;20031;-73
2022/05/30 07:37:50;;;;;;;3.88;2.45;;;;;;;;;;5017240;28;20044;-74
2022/05/30 07:40:16;;;;;;;5.82;2.92;;;;;;;;;;5012347;28;20087;-71
2022/05/30 07:42:43;;;;;;;7.72;3.45;;;;;;;;;;5022768;28;20033;-72
2022/05/30 07:45:10;;;;;;;5.82;3.50;;;;;;;;;;5022316;28;20548;-73
2022/05/30 07:47:37;;;;;;;9.20;3.78;;;;;;;;;;5025455;28;20715;-72
2022/05/30 07:50:05;;;;;;;6.20;2.40;;;;;;;;;;5023428;28;20045;-74
2022/05/30 07:52:31;;;;;;;5.45;2.38;;;;;;;;;;5020348;28;21108;-72
2022/05/30 07:54:58;;;;;;;3.42;2.58;;;;;;;;;;5020968;28;20037;-70
2022/05/30 07:58:09;;;;;;;4.63;2.85;;;;;;;;;;5016904;28;20052;-73
2022/05/30 08:00:18;;;;;;;5.63;3.10;;;;;;;;;;5021802;28;20045;-74
2022/05/30 08:02:45;;;;;;;4.35;3.30;;;;;;;;;;5020156;28;20049;-73
2022/05/30 08:05:13;;;;;;;5.70;2.70;;;;;;;;;;5018255;28;20405;-74
2022/05/30 08:07:39;;;;;;;3.08;2.72;;;;;;;;;;5018789;28;20069;-74
2022/05/30 08:10:07;;;;;;;3.15;2.28;;;;;;;;;;5017462;28;20108;-72
2022/05/30 08:12:34;;;;;;;3.67;2.50;;;;;;;;;;5015558;28;20285;-73
2022/05/30 08:15:00;;;;;;;2.42;2.22;;;;;;;;;;5013043;28;20182;-72
2022/05/30 08:17:27;;;;;;;3.95;2.08;;;;;;;;;;5022054;28;20036;-74
2022/05/30 08:19:53;;;;;;;3.58;2.28;;;;;;;;;;5011147;28;20119;-72
2022/05/30 08:22:19;;;;;;;10.70;3.00;;;;;;;;;;5016422;28;20037;-72
2022/05/30 08:24:52;;;;;;;7.45;2.65;;;;;;;;;;5019487;28;20033;-73
2022/05/30 08:27:20;;;;;;;4.20;2.45;;;;;;;;;;5019078;28;20029;-73
2022/05/30 08:29:45;;;;;;;5.18;2.95;;;;;;;;;;5000330;28;20080;-74
2022/05/30 08:32:13;;;;;;;3.33;2.70;;;;;;;;;;5021627;28;20468;-74
2022/05/30 08:34:39;;;;;;;4.68;2.95;;;;;;;;;;5002080;28;21329;-72
2022/05/30 08:37:07;;;;;;;4.72;2.60;;;;;;;;;;5020617;28;20414;-73
2022/05/30 08:42:25;;;;;;;3.38;2.28;;;;;;;;;;5008165;28;20401;-72
2022/05/30 08:44:51;;;;;;;4.55;2.42;;;;;;;;;;5022567;28;20121;-73
2022/05/30 08:47:47;;;;;;;4.82;2.70;;;;;;;;;;5004798;28;20107;-75
2022/05/30 08:51:00;;;;;;;4.03;2.83;;;;;;;;;;4977321;28;20049;-74
2022/05/30 08:53:52;;;;;;;9.88;3.08;;;;;;;;;;5001608;28;20160;-75
2022/05/30 08:56:28;;;;;;;5.53;2.90;;;;;;;;;;4995578;28;20060;-72
2022/05/30 08:59:15;;;;;;;4.95;2.72;;;;;;;;;;5006267;28;20029;-73
2022/05/30 09:01:53;;;;;;;4.03;3.05;;;;;;;;;;5003756;28;20042;-74
2022/05/30 09:04:30;;;;;;;7.40;2.92;;;;;;;;;;5003349;28;20973;-75
2022/05/30 09:07:03;;;;;;;5.63;2.78;;;;;;;;;;5002458;28;20113;-72
2022/05/30 09:09:57;;;;;;;8.68;3.55;;;;;;;;;;5008352;28;20108;-75
2022/05/30 09:12:45;;;;;;;4.57;2.60;;;;;;;;;;5007630;28;20025;-73
2022/05/30 09:15:34;;;;;;;6.10;2.50;;;;;;;;;;5009732;28;20109;-73
2022/05/30 09:18:03;;;;;;;10.00;3.15;;;;;;;;;;5009545;28;20045;-73
2022/05/30 09:20:41;;;;;;;5.65;2.95;;;;;;;;;;5001172;28;20526;-73
2022/05/30 09:23:18;;;;;;;7.25;2.80;;;;;;;;;;5009629;28;20030;-71
2022/05/30 09:26:07;;;;;;;8.18;2.72;;;;;;;;;;5006991;28;20139;-72
2022/05/30 09:28:39;;;;;;;3.53;2.38;;;;;;;;;;5006507;28;20033;-72
2022/05/30 09:31:27;;;;;;;6.53;3.03;;;;;;;;;;5005329;28;20025;-72
2022/05/30 09:33:58;;;;;;;6.18;2.60;;;;;;;;;;5002541;28;20040;-72
2022/05/30 09:36:27;;;;;;;5.78;2.53;;;;;;;;;;5000221;28;20116;-73
2022/05/30 09:39:02;;;;;;;4.30;2.17;;;;;;;;;;5005368;28;20034;-75
2022/05/30 09:41:48;;;;;;;4.13;2.85;;;;;;;;;;5012683;28;20820;-74
2022/05/30 09:44:17;;;;;;;3.08;2.42;;;;;;;;;;4991692;28;20041;-72
2022/05/30 09:46:53;;;;;;;2.88;2.55;;;;;;;;;;4997868;28;20697;-75
2022/05/30 09:49:25;;;;;;;5.57;2.85;;;;;;;;;;4993961;28;20034;-70
2022/05/30 09:52:00;;;;;;;17.00;3.50;;;;;;;;;;4998193;28;20128;-72
2022/05/30 09:54:28;;;;;;;3.70;3.10;;;;;;;;;;5000418;28;20195;-75
2022/05/30 09:57:31;;;;;;;9.90;2.80;;;;;;;;;;5000619;28;20526;-71
2022/05/30 10:00:08;;;;;;;8.13;2.65;;;;;;;;;;4980641;28;20553;-72
2022/05/30 10:02:37;;;;;;;4.90;2.60;;;;;;;;;;4982886;28;20504;-72
2022/05/30 10:05:15;;;;;;;5.03;2.47;;;;;;;;;;4999902;28;20041;-71
2022/05/30 10:08:27;;;;;;;5.57;4.18;;;;;;;;;;4999561;28;20068;-72
2022/05/30 10:10:58;;;;;;;4.90;2.85;;;;;;;;;;4998061;28;20041;-74
2022/05/30 10:13:41;;;;;;;8.05;3.13;;;;;;;;;;4987583;28;20030;-73
2022/05/30 10:16:18;;;;;;;3.97;2.88;;;;;;;;;;4990927;28;20041;-72
2022/05/30 10:18:57;;;;;;;2.97;2.58;;;;;;;;;;4998444;28;20117;-75
2022/05/30 10:28:27;;;;;;;6.53;3.53;;;;;;;;;;4998955;28;20153;-72
2022/05/30 10:31:20;;;;;;;14.40;4.15;;;;;;;;;;4995256;28;20061;-70
2022/05/30 10:34:23;;;;;;;3.75;2.63;;;;;;;;;;5001407;28;20099;-72
2022/05/30 10:37:15;;;;;;;13.60;4.43;;;;;;;;;;4994744;28;20019;-72
2022/05/30 10:40:21;;;;;;;6.10;3.28;;;;;;;;;;4993306;28;20096;-74
2022/05/30 10:43:08;;;;;;;16.40;5.68;;;;;;;;;;4996560;28;20569;-74
2022/05/30 10:45:58;;;;;;;9.50;3.45;;;;;;;;;;4993977;28;20091;-72
2022/05/30 10:48:45;;;;;;;3.65;3.00;;;;;;;;;;4987476;28;20038;-72
2022/05/30 10:51:23;;;;;;;5.90;3.30;;;;;;;;;;4994931;28;20096;-72
2022/05/30 10:54:01;;;;;;;5.13;2.75;;;;;;;;;;4999434;28;20037;-73
2022/05/30 10:56:37;;;;;;;6.93;3.00;;;;;;;;;;4997112;28;20462;-71
2022/05/30 10:59:05;;;;;;;7.03;3.30;;;;;;;;;;5004355;28;20563;-71
2022/05/30 11:01:43;;;;;;;3.45;2.80;;;;;;;;;;4992040;28;20034;-73
2022/05/30 11:04:21;;;;;;;7.45;2.80;;;;;;;;;;4981894;28;20124;-73
2022/05/30 11:06:48;;;;;;;6.28;2.65;;;;;;;;;;4997234;28;20037;-74
2022/05/30 11:09:20;;;;;;;6.28;2.33;;;;;;;;;;4994797;28;20038;-73
2022/05/30 11:11:53;;;;;;;5.20;2.78;;;;;;;;;;4994842;28;20725;-74
2022/05/30 11:14:22;;;;;;;3.08;2.60;;;;;;;;;;4998227;28;20034;-74
2022/05/30 11:17:02;;;;;;;5.85;2.95;;;;;;;;;;4999387;28;20026;-73
2022/05/30 11:19:53;;;;;;;7.57;3.00;;;;;;;;;;4996128;28;20041;-74
2022/05/30 11:22:54;;;;;;;7.85;2.83;;;;;;;;;;4997803;28;20634;-75
2022/05/30 11:26:14;;;;;;;4.97;2.25;;;;;;;;;;4992804;28;20033;-70
2022/05/30 11:29:05;;;;;;;5.25;2.50;;;;;;;;;;4994890;28;20042;-70
2022/05/30 11:32:11;;;;;;;3.97;2.30;;;;;;;;;;4997413;28;21151;-70
2022/05/30 11:34:51;;;;;;;6.28;2.45;;;;;;;;;;5024660;28;20049;-70
2022/05/30 11:38:00;;;;;;;2.37;2.17;;;;;;;;;;5007695;28;20108;-71
2022/05/30 11:40:38;;;;;;;7.05;3.50;;;;;;;;;;4994738;28;20281;-71
2022/05/30 11:43:35;;;;;;;8.77;2.67;;;;;;;;;;4999321;28;20098;-75
2022/05/30 11:46:26;;;;;;;3.40;2.22;;;;;;;;;;4994337;28;20064;-73
2022/05/30 11:49:05;;;;;;;6.93;2.30;;;;;;;;;;4996803;28;20041;-74
2022/05/30 11:51:58;;;;;;;3.33;2.50;;;;;;;;;;4990831;28;20040;-76
2022/05/30 11:54:39;;;;;;;3.15;2.38;;;;;;;;;;4990547;28;20113;-76
2022/05/30 11:57:18;;;;;;;3.10;2.30;;;;;;;;;;4990567;28;20037;-72
2022/05/30 12:00:07;;;;;;;2.67;2.30;;;;;;;;;;4988160;28;20037;-74
2022/05/30 12:02:57;;;;;;;2.55;2.33;;;;;;;;;;4989864;28;20100;-74
2022/05/30 12:05:39;;;;;;;4.20;1.30;;;;;;;;;;4990133;28;20078;-75
2022/05/30 12:08:39;;;;;;;3.63;1.67;;;;;;;;;;4990966;28;20045;-75
2022/05/30 12:11:17;;;;;;;3.70;1.08;;;;;;;;;;4987095;28;20903;-76
2022/05/30 12:13:45;;;;;;;4.25;2.20;;;;;;;;;;4993970;28;20080;-73
2022/05/30 12:16:35;;;;;;;2.10;1.30;;;;;;;;;;4989461;28;20065;-75
2022/05/30 12:24:56;;;;;;;1.88;1.20;;;;;;;;;;4987252;28;20576;-74
2022/05/30 12:27:31;;;;;;;3.72;1.40;;;;;;;;;;5002944;28;20032;-75
2022/05/30 12:29:59;;;;;;;13.88;1.92;;;;;;;;;;5001961;28;21710;-72
2022/05/30 12:32:29;;;;;;;4.03;1.67;;;;;;;;;;4994059;28;20022;-72
2022/05/30 12:35:05;;;;;;;4.30;1.38;;;;;;;;;;4992828;28;20033;-73
2022/05/30 12:38:09;;;;;;;2.13;1.38;;;;;;;;;;4994107;28;20042;-75
2022/05/30 12:40:39;;;;;;;2.83;1.45;;;;;;;;;;4985940;28;20089;-74
2022/05/30 12:43:23;;;;;;;2.08;1.10;;;;;;;;;;4960276;28;20240;-72
2022/05/30 12:45:51;;;;;;;3.53;1.50;;;;;;;;;;4985998;28;20091;-74
2022/05/30 12:48:21;;;;;;;5.75;1.80;;;;;;;;;;4993750;28;20084;-74
2022/05/30 12:50:52;;;;;;;3.50;2.15;;;;;;;;;;4980895;28;20394;-73
2022/05/30 12:53:19;;;;;;;;;;;;;;;;;;4986280;28;20440;-72
2022/05/30 12:55:51;;;;;;;1.77;1.55;;;;;;;;;;4988760;28;19926;-76
2022/05/30 12:58:29;;;;;;;3.03;1.58;;;;;;;;;;5005826;28;20821;-74
2022/05/30 13:01:20;;;;;;;2.58;1.48;;;;;;;;;;4983448;28;20034;-74
2022/05/30 13:04:08;;;;;;;3.42;1.60;;;;;;;;;;4989121;28;20069;-75
2022/05/30 13:06:58;;;;;;;2.25;1.20;;;;;;;;;;4987262;28;20494;-74
2022/05/30 13:09:43;;;;;;;8.05;1.50;;;;;;;;;;4986344;28;20065;-74
2022/05/30 13:12:11;;;;;;;9.73;1.95;;;;;;;;;;4991604;28;20448;-74
2022/05/30 13:14:36;;;;;;;2.65;1.42;;;;;;;;;;4990752;28;20057;-73
2022/05/30 13:17:26;;;;;;;3.17;1.40;;;;;;;;;;4993716;28;20161;-72
2022/05/30 13:20:02;;;;;;;10.43;1.90;;;;;;;;;;4992282;28;20112;-76
2022/05/30 13:23:16;;;;;;;4.97;1.73;;;;;;;;;;4993641;28;20030;-73
2022/05/30 13:25:47;;;;;;;5.15;1.63;;;;;;;;;;4982375;28;20053;-72
2022/05/30 13:28:22;;;;;;;5.65;2.00;;;;;;;;;;4998028;28;20452;-72
2022/05/30 13:30:51;;;;;;;6.28;2.25;;;;;;;;;;4995211;28;20036;-72
2022/05/30 13:33:26;;;;;;;4.15;1.35;;;;;;;;;;4995232;28;21072;-75
2022/05/30 13:36:05;;;;;;;5.47;1.52;;;;;;;;;;4995132;28;20720;-74
2022/05/30 13:38:36;;;;;;;4.07;2.45;;;;;;;;;;4999549;28;20037;-71
2022/05/30 13:41:22;;;;;;;4.72;1.58;;;;;;;;;;5013323;28;20033;-71
2022/05/30 13:43:51;;;;;;;6.50;2.17;;;;;;;;;;5000856;28;20046;-70
2022/05/30 13:46:33;;;;;;;5.65;1.65;;;;;;;;;;4996606;28;20042;-71
2022/05/30 13:48:59;;;;;;;3.13;1.40;;;;;;;;;;5007961;28;20026;-72
2022/05/30 13:51:34;;;;;;;4.13;1.52;;;;;;;;;;4996506;28;20423;-73
2022/05/30 13:54:01;;;;;;;4.78;1.17;;;;;;;;;;4994118;28;20483;-72
2022/05/30 13:56:37;;;;;;;1.35;1.00;;;;;;;;;;4997758;28;20045;-75
2022/05/30 13:59:10;;;;;;;2.30;0.95;;;;;;;;;;5009342;28;20226;-72
2022/05/30 14:01:38;;;;;;;2.58;0.80;;;;;;;;;;4993922;28;20206;-70
2022/05/30 14:04:14;;;;;;;3.05;1.33;;;;;;;;;;4998193;28;20347;-74
2022/05/30 14:06:43;;;;;;;1.50;0.75;;;;;;;;;;5003863;28;20088;-75
2022/05/30 14:09:12;;;;;;;1.98;1.13;;;;;;;;;;5002795;28;20113;-76
2022/05/30 14:11:45;;;;;;;1.65;1.00;;;;;;;;;;4996184;28;20401;-72
2022/05/30 14:14:31;;;;;;;3.33;1.50;;;;;;;;;;4996799;28;20042;-73
2022/05/30 14:16:58;;;;;;;6.55;4.97;;;;;;;;;;4991584;28;20026;-72
2022/05/30 14:19:31;;;;;;;3.65;0.95;;;;;;;;;;4997550;28;20101;-72
2022/05/30 14:22:00;;;;;;;1.67;0.75;;;;;;;;;;4998123;28;20022;-73
2022/05/30 14:24:34;;;;;;;2.42;0.80;;;;;;;;;;4989728;28;20032;-72
2022/05/30 14:27:03;;;;;;;1.55;0.90;;;;;;;;;;5000728;28;20094;-74
2022/05/30 14:29:46;;;;;;;2.47;1.20;;;;;;;;;;4996130;28;20042;-75
2022/05/30 14:32:17;;;;;;;2.22;1.38;;;;;;;;;;4986414;28;20120;-74
2022/05/30 14:35:07;;;;;;;1.88;1.55;;;;;;;;;;5000708;28;20037;-73
2022/05/30 14:37:34;;;;;;;3.03;1.67;;;;;;;;;;4999776;28;20037;-72
2022/05/30 14:40:03;;;;;;;4.40;1.65;;;;;;;;;;5018730;28;20052;-73
2022/05/30 14:42:36;;;;;;;3.15;1.73;;;;;;;;;;5001406;28;20087;-71
2022/05/30 14:45:15;;;;;;;2.58;1.67;;;;;;;;;;5015694;28;20036;-75
2022/05/30 14:47:49;;;;;;;3.28;1.40;;;;;;;;;;5001756;28;20140;-71
2022/05/30 14:50:26;;;;;;;2.58;1.50;;;;;;;;;;5002065;28;20560;-76
2022/05/30 14:52:55;;;;;;;6.57;4.50;;;;;;;;;;4997404;28;20030;-72
2022/05/30 14:55:31;;;;;;;4.50;3.72;;;;;;;;;;5002861;28;20034;-74
2022/05/30 14:58:19;;;;;;;5.80;1.60;;;;;;;;;;4993846;28;20120;-72
2022/05/30 15:01:02;;;;;;;2.63;1.58;;;;;;;;;;4981372;28;20041;-72
2022/05/30 15:06:43;;;;;;;4.90;1.33;;;;;;;;;;5001987;28;20559;-72
2022/05/30 15:09:14;;;;;;;4.28;1.77;;;;;;;;;;5012021;28;20187;-73
2022/05/30 15:11:40;;;;;;;;;;;;;;;;;;4993514;28;20473;-72
2022/05/30 15:14:12;;;;;;;4.60;1.63;;;;;;;;;;5002762;28;19924;-71
2022/05/30 15:16:38;;;;;;;2.92;1.85;;;;;;;;;;5001951;28;20034;-73
2022/05/30 15:19:03;;;;;;;2.65;1.40;;;;;;;;;;5013640;28;20425;-74
2022/05/30 15:21:38;;;;;;;3.72;1.40;;;;;;;;;;4997660;28;20042;-73
2022/05/30 15:24:14;;;;;;;2.88;1.60;;;;;;;;;;4999386;28;20026;-72
2022/05/30 15:26:42;;;;;;;3.40;2.00;;;;;;;;;;4998298;28;20033;-71
2022/05/30 15:29:23;;;;;;;2.95;1.88;;;;;;;;;;4997971;28;20127;-73
2022/05/30 15:31:50;;;;;;;11.18;2.08;;;;;;;;;;4983819;28;20103;-73
2022/05/30 15:34:16;;;;;;;3.22;1.70;;;;;;;;;;5014400;28;20057;-72
2022/05/30 15:36:42;;;;;;;3.08;2.08;;;;;;;;;;5000789;28;20104;-72
2022/05/30 15:39:16;;;;;;;2.47;1.45;;;;;;;;;;5003878;28;20169;-73
2022/05/30 15:41:52;;;;;;;3.90;1.75;;;;;;;;;;5001558;28;20025;-72
2022/05/30 15:44:22;;;;;;;7.57;2.10;;;;;;;;;;4999564;28;20036;-72
2022/05/30 15:46:49;;;;;;;2.97;1.73;;;;;;;;;;5003216;28;20029;-72